Time;durP1;ratioP1;P1;durP2;ratioP2;P2;SDS_P1;SDS_P2;PMS_P1;PMS_P2;Temp;Humidity;BMP_temperature;BMP_pressure;BME280_temperature;BME280_humidity;BME280_pressure;Samples;Min_cycle;Max_cycle;Signal;HPM_P1;HPM_P2
2022/05/15 00:00:39;;;;;;;44.15;8.27;;;;;;;10.74;82.16;102017.75;1044843;28;20673;-78
2022/05/15 00:01:11;;;;;;;50.83;9.20;;;;;;;10.86;81.94;102015.41;1045005;28;20365;-78
2022/05/15 00:01:43;;;;;;;36.35;8.88;;;;;;;10.81;81.95;102018.63;1048661;28;20283;-78
2022/05/15 00:02:15;;;;;;;42.83;10.98;;;;;;;10.83;81.83;102015.78;1043029;28;20291;-77
2022/05/15 00:02:47;;;;;;;39.25;9.10;;;;;;;10.72;82.11;102014.44;1040389;28;20292;-78
2022/05/15 00:03:21;;;;;;;34.25;8.55;;;;;;;10.77;82.14;102014.69;1040949;28;20288;-78
2022/05/15 00:03:52;;;;;;;43.58;10.98;;;;;;;10.78;82.49;102019.00;1041148;28;20299;-78
2022/05/15 00:04:24;;;;;;;41.10;8.40;;;;;;;10.64;82.68;102022.53;1040295;28;20299;-78
2022/05/15 00:04:56;;;;;;;38.78;9.02;;;;;;;10.57;83.17;102021.63;1038927;28;20297;-78
2022/05/15 00:05:27;;;;;;;48.20;8.93;;;;;;;10.68;82.65;102012.31;1036809;28;20297;-78
2022/05/15 00:06:02;;;;;;;35.60;7.88;;;;;;;10.46;82.09;102008.81;1040967;28;20300;-77
2022/05/15 00:06:34;;;;;;;43.33;8.65;;;;;;;10.43;82.26;102018.00;1045683;28;20283;-77
2022/05/15 00:07:06;;;;;;;42.58;9.88;;;;;;;10.56;82.40;102019.97;1044458;28;20299;-78
2022/05/15 00:07:38;;;;;;;31.02;9.05;;;;;;;10.54;82.53;102022.00;1045612;28;20299;-78
2022/05/15 00:08:11;;;;;;;40.97;9.45;;;;;;;10.26;82.84;102013.88;1047712;28;20295;-78
2022/05/15 00:08:43;;;;;;;40.30;9.35;;;;;;;10.23;82.80;102019.56;1044499;28;20310;-78
2022/05/15 00:09:14;;;;;;;37.42;9.68;;;;;;;10.32;83.08;102022.97;1046646;28;20341;-78
2022/05/15 00:09:46;;;;;;;39.60;10.20;;;;;;;10.43;83.32;102018.00;1048899;28;20045;-77
2022/05/15 00:10:17;;;;;;;26.98;8.70;;;;;;;10.45;83.54;102023.13;1048615;28;20287;-78
2022/05/15 00:10:52;;;;;;;52.47;9.82;;;;;;;10.04;83.19;102020.91;1048552;28;20320;-77
2022/05/15 00:11:23;;;;;;;49.78;9.38;;;;;;;9.87;83.37;102014.97;1044412;28;20283;-79
2022/05/15 00:11:55;;;;;;;32.22;7.97;;;;;;;10.08;83.46;102022.19;1045346;28;20807;-78
2022/05/15 00:12:26;;;;;;;26.60;7.13;;;;;;;10.01;83.54;102021.28;1044551;28;20283;-78
2022/05/15 00:12:58;;;;;;;24.77;7.53;;;;;;;9.90;83.81;102019.09;1040754;28;20092;-78
2022/05/15 00:13:30;;;;;;;23.25;7.43;;;;;;;9.77;83.43;102021.53;1047596;28;20299;-78
2022/05/15 00:14:02;;;;;;;19.88;6.20;;;;;;;9.88;83.80;102018.44;1040757;28;20292;-78
2022/05/15 00:14:34;;;;;;;30.30;8.00;;;;;;;9.85;83.29;102026.78;1044298;28;20295;-78
2022/05/15 00:15:06;;;;;;;28.13;9.15;;;;;;;10.00;84.04;102022.31;1044462;28;20789;-77
2022/05/15 00:15:38;;;;;;;26.88;8.70;;;;;;;10.06;83.62;102024.22;1045082;28;20383;-78
2022/05/15 00:16:10;;;;;;;28.20;8.80;;;;;;;10.24;84.00;102025.72;1045196;28;20296;-78
2022/05/15 00:16:42;;;;;;;33.75;9.48;;;;;;;10.00;83.39;102019.63;1048544;28;20366;-78
2022/05/15 00:17:14;;;;;;;26.45;8.25;;;;;;;10.00;84.44;102019.63;1044361;28;20295;-79
2022/05/15 00:17:46;;;;;;;25.00;8.43;;;;;;;9.98;84.48;102026.16;1045085;28;20299;-77
2022/05/15 00:18:18;;;;;;;21.88;8.90;;;;;;;10.01;84.30;102021.28;1044445;28;20299;-78
2022/05/15 00:18:50;;;;;;;31.58;9.68;;;;;;;10.12;84.23;102022.66;1041055;28;20872;-78
2022/05/15 00:19:22;;;;;;;25.25;9.70;;;;;;;9.93;84.38;102024.03;1040258;28;20308;-78
2022/05/15 00:19:53;;;;;;;28.60;7.25;;;;;;;10.09;84.04;102017.69;1036754;28;20304;-77
2022/05/15 00:20:25;;;;;;;30.27;7.15;;;;;;;9.53;83.80;102012.78;1040640;28;20720;-78
2022/05/15 00:20:57;;;;;;;23.70;8.63;;;;;;;9.62;84.38;102012.72;1040782;28;20292;-78
2022/05/15 00:21:28;;;;;;;28.85;7.95;;;;;;;9.76;84.26;102022.56;1044442;28;20302;-77
2022/05/15 00:22:00;;;;;;;30.25;8.70;;;;;;;9.72;84.56;102016.78;1044666;28;20291;-78
2022/05/15 00:22:37;;;;;;;26.27;9.55;;;;;;;9.66;84.65;102014.03;1044443;28;20784;-77
2022/05/15 00:23:10;;;;;;;24.30;7.72;;;;;;;9.80;83.80;102007.88;1036155;28;20297;-78
2022/05/15 00:23:42;;;;;;;31.30;9.23;;;;;;;9.85;84.49;102013.47;1032021;28;20293;-79
2022/05/15 00:24:14;;;;;;;33.33;8.90;;;;;;;9.83;83.61;102011.00;1033571;28;20289;-77
2022/05/15 00:24:46;;;;;;;30.05;9.52;;;;;;;9.27;84.53;102015.00;1032787;28;20305;-77
2022/05/15 00:25:17;;;;;;;20.52;7.15;;;;;;;9.55;85.11;102015.25;1036755;28;20289;-77
2022/05/15 00:25:49;;;;;;;24.95;7.80;;;;;;;9.62;84.95;102015.41;1040539;28;20300;-78
2022/05/15 00:26:21;;;;;;;38.08;8.77;;;;;;;9.50;84.69;102012.31;1042598;28;20299;-77
2022/05/15 00:26:55;;;;;;;27.15;8.10;;;;;;;9.56;85.04;102016.91;1040144;28;20335;-78
2022/05/15 00:27:27;;;;;;;24.38;10.23;;;;;;;9.41;84.98;102014.25;1039900;28;20292;-78
2022/05/15 00:27:59;;;;;;;26.02;8.73;;;;;;;9.59;85.79;102014.75;1040082;28;20785;-78
2022/05/15 00:28:30;;;;;;;25.13;8.07;;;;;;;9.56;85.61;102020.41;1036145;28;20308;-78
2022/05/15 00:29:02;;;;;;;30.52;7.93;;;;;;;9.48;84.46;102017.00;1032616;28;20289;-78
2022/05/15 00:29:34;;;;;;;22.08;8.13;;;;;;;9.65;85.09;102015.03;1032043;28;20404;-78
2022/05/15 00:30:06;;;;;;;35.13;8.35;;;;;;;9.50;84.63;102017.66;1032739;28;20648;-77
2022/05/15 00:30:37;;;;;;;32.17;7.68;;;;;;;9.53;85.04;102017.28;1032684;28;20305;-77
2022/05/15 00:31:10;;;;;;;28.23;7.47;;;;;;;9.57;85.08;102019.38;1039344;28;20731;-78
2022/05/15 00:31:41;;;;;;;21.77;8.13;;;;;;;9.72;85.58;102018.59;1044310;28;20781;-77
2022/05/15 00:32:13;;;;;;;28.88;7.90;;;;;;;9.80;85.75;102014.03;1044356;28;20296;-78
2022/05/15 00:32:44;;;;;;;22.75;8.07;;;;;;;9.82;86.27;102016.50;1040373;28;20303;-77
2022/05/15 00:33:16;;;;;;;22.48;7.25;;;;;;;9.99;86.06;102022.47;1032027;28;20306;-78
2022/05/15 00:33:48;;;;;;;17.52;7.68;;;;;;;9.98;85.18;102011.00;1032176;28;20289;-77
2022/05/15 00:34:19;;;;;;;31.92;8.25;;;;;;;9.99;85.50;102017.16;1032066;28;20309;-78
2022/05/15 00:34:51;;;;;;;25.58;7.65;;;;;;;10.10;85.29;102016.69;1033817;28;20686;-77
2022/05/15 00:35:23;;;;;;;27.45;8.50;;;;;;;10.01;84.68;102007.97;1037091;28;20309;-78
2022/05/15 00:35:55;;;;;;;26.65;7.75;;;;;;;10.08;85.39;102014.22;1040251;28;20394;-78
2022/05/15 00:36:26;;;;;;;28.00;8.75;;;;;;;10.16;85.18;102008.81;1040843;28;20296;-78
2022/05/15 00:36:58;;;;;;;26.05;7.75;;;;;;;10.07;85.14;102009.91;1044564;28;20777;-78
2022/05/15 00:37:30;;;;;;;34.83;8.50;;;;;;;10.11;85.22;102021.81;1040587;28;20304;-78
2022/05/15 00:38:03;;;;;;;24.48;7.70;;;;;;;10.14;85.63;102016.16;1040097;28;20837;-78
2022/05/15 00:38:35;;;;;;;35.85;9.00;;;;;;;10.11;85.44;102011.19;1036214;28;20802;-77
2022/05/15 00:39:07;;;;;;;29.77;9.23;;;;;;;10.11;85.36;102010.34;1033783;28;20319;-78
2022/05/15 00:39:38;;;;;;;21.33;7.25;;;;;;;10.10;85.62;102014.84;1028772;28;20661;-78
2022/05/15 00:40:14;;;;;;;26.48;7.05;;;;;;;9.99;85.11;102011.84;1032819;28;20297;-77
2022/05/15 00:40:48;;;;;;;27.77;9.32;;;;;;;10.02;85.71;102006.97;1033255;28;20384;-77
2022/05/15 00:41:20;;;;;;;29.73;7.63;;;;;;;10.06;85.60;102010.09;1033480;28;20325;-78
2022/05/15 00:41:51;;;;;;;21.88;6.88;;;;;;;10.11;85.20;102016.50;1036134;28;20343;-78
2022/05/15 00:42:23;;;;;;;22.55;6.93;;;;;;;10.11;85.71;102016.50;1037010;28;20339;-78
2022/05/15 00:42:55;;;;;;;24.15;7.22;;;;;;;10.03;85.41;102013.94;1041376;28;20799;-78
2022/05/15 00:43:46;;;;;;;21.08;8.02;;;;;;;9.99;86.03;102017.16;1044331;28;20307;-78
2022/05/15 00:44:17;;;;;;;25.48;8.07;;;;;;;9.76;85.92;102011.91;1032109;28;20285;-78
2022/05/15 00:44:49;;;;;;;32.28;9.55;;;;;;;9.75;86.57;102020.91;1035128;28;20049;-77
2022/05/15 00:45:22;;;;;;;24.95;8.10;;;;;;;9.83;86.00;102008.31;1029709;28;20290;-78
2022/05/15 00:45:54;;;;;;;23.92;6.82;;;;;;;9.78;86.42;102017.88;1028587;28;20310;-77
2022/05/15 00:46:28;;;;;;;22.77;7.45;;;;;;;9.55;85.96;102020.59;1031985;28;20300;-77
2022/05/15 00:47:00;;;;;;;25.77;7.85;;;;;;;9.34;86.94;102013.31;1034386;28;20372;-77
2022/05/15 00:47:33;;;;;;;23.00;7.63;;;;;;;9.32;87.29;102015.31;1037847;28;20690;-78
2022/05/15 00:48:04;;;;;;;23.42;7.20;;;;;;;9.14;86.71;102012.13;1040187;28;20295;-78
2022/05/15 00:48:36;;;;;;;21.65;7.50;;;;;;;9.08;87.42;102016.34;1035959;28;20378;-78
2022/05/15 00:49:11;;;;;;;21.13;7.18;;;;;;;9.20;87.47;102014.06;1028531;28;20831;-78
2022/05/15 00:49:43;;;;;;;20.70;6.72;;;;;;;9.07;87.88;102017.34;1032037;28;20297;-77
2022/05/15 00:50:17;;;;;;;17.95;6.57;;;;;;;9.14;88.56;102014.78;1031925;28;20305;-78
2022/05/15 00:50:50;;;;;;;19.88;6.35;;;;;;;9.34;88.58;102018.63;1034412;28;20347;-77
2022/05/15 00:51:26;;;;;;;20.55;8.55;;;;;;;9.61;87.60;102014.56;1037146;28;20300;-78
2022/05/15 00:52:01;;;;;;;20.98;7.15;;;;;;;9.65;87.01;102009.69;1042080;28;20280;-79
2022/05/15 00:52:37;;;;;;;23.77;7.57;;;;;;;9.60;87.19;102008.41;1045523;28;20311;-79
2022/05/15 00:53:10;;;;;;;21.80;7.55;;;;;;;9.29;86.64;102007.69;1038863;28;20304;-79
2022/05/15 00:53:41;;;;;;;27.55;7.68;;;;;;;9.14;87.77;102012.13;1035249;28;20508;-79
2022/05/15 00:54:32;;;;;;;26.02;8.15;;;;;;;8.97;87.98;102011.41;1031488;28;20301;-79
2022/05/15 00:55:14;;;;;;;17.85;6.57;;;;;;;9.16;88.59;102012.78;1037211;28;20296;-79
2022/05/15 00:55:49;;;;;;;25.60;7.93;;;;;;;9.06;88.62;102006.88;1035533;28;20488;-79
2022/05/15 00:56:23;;;;;;;20.85;7.30;;;;;;;9.24;88.76;102015.38;1034381;28;20300;-79
2022/05/15 00:57:02;;;;;;;23.98;7.25;;;;;;;8.85;88.51;102013.66;1026893;28;20301;-79
2022/05/15 00:57:55;;;;;;;19.52;6.15;;;;;;;8.83;89.64;102013.03;1025053;28;20867;-79
2022/05/15 00:58:36;;;;;;;25.60;7.57;;;;;;;9.01;89.01;102006.56;1031365;28;20309;-80
2022/05/15 00:59:12;;;;;;;20.73;6.15;;;;;;;8.96;88.99;102010.59;1035427;28;20304;-80
2022/05/15 00:59:53;;;;;;;21.77;7.35;;;;;;;8.67;88.01;102011.28;1030874;28;20046;-80
2022/05/15 01:00:27;;;;;;;17.13;7.18;;;;;;;8.82;88.96;102002.56;1027003;28;20317;-80
2022/05/15 01:00:58;;;;;;;22.38;7.65;;;;;;;8.65;89.07;102000.00;1026867;28;20584;-80
2022/05/15 01:01:31;;;;;;;22.00;7.47;;;;;;;8.64;89.73;102005.50;1027161;28;20309;-79
2022/05/15 01:02:03;;;;;;;26.02;9.43;;;;;;;8.61;90.08;102011.97;1031103;28;20301;-79
2022/05/15 01:02:39;;;;;;;27.50;8.57;;;;;;;8.61;90.38;102016.47;1026823;28;20294;-79
2022/05/15 01:03:14;;;;;;;21.42;6.20;;;;;;;8.71;90.05;102009.09;1027405;28;20302;-80
2022/05/15 01:03:46;;;;;;;22.50;6.03;;;;;;;8.69;90.04;102013.75;1028339;28;20450;-80
2022/05/15 01:04:18;;;;;;;18.40;7.38;;;;;;;8.68;89.23;102009.44;1032183;28;20319;-80
2022/05/15 01:04:50;;;;;;;28.75;7.80;;;;;;;8.63;89.57;102014.47;1030810;28;20305;-80
2022/05/15 01:05:22;;;;;;;23.67;8.13;;;;;;;8.70;90.21;102014.56;1028032;28;20294;-80
2022/05/15 01:05:56;;;;;;;19.65;7.40;;;;;;;8.82;90.11;102013.19;1027672;28;20749;-80
2022/05/15 01:06:31;;;;;;;22.15;6.93;;;;;;;8.63;89.25;102009.16;1033329;28;20345;-80
2022/05/15 01:07:03;;;;;;;15.18;7.43;;;;;;;8.61;89.35;102006.66;1032198;28;20308;-80
2022/05/15 01:07:35;;;;;;;17.83;5.82;;;;;;;8.66;89.90;102006.13;1035116;28;20348;-80
2022/05/15 01:08:07;;;;;;;18.33;6.88;;;;;;;8.45;89.43;102011.22;1035206;28;20293;-80
2022/05/15 01:08:39;;;;;;;21.83;6.47;;;;;;;8.47;89.99;102007.38;1032315;28;20336;-81
2022/05/15 01:09:12;;;;;;;23.55;7.28;;;;;;;8.50;90.14;102014.22;1031827;28;20329;-81
2022/05/15 01:09:45;;;;;;;28.13;7.00;;;;;;;8.71;90.39;102014.41;1027833;28;20396;-80
2022/05/15 01:10:18;;;;;;;21.58;8.23;;;;;;;8.80;90.15;102013.38;1023825;28;20394;-79
2022/05/15 01:10:56;;;;;;;31.98;7.15;;;;;;;8.83;90.09;102005.03;1026960;28;20302;-78
2022/05/15 01:11:34;;;;;;;28.08;7.75;;;;;;;8.89;89.24;102009.66;1030740;28;20340;-79
2022/05/15 01:12:07;;;;;;;22.83;7.78;;;;;;;8.92;88.89;102017.25;1038121;28;20384;-80
2022/05/15 01:12:40;;;;;;;20.83;7.40;;;;;;;8.76;88.57;102008.56;1035416;28;20301;-78
2022/05/15 01:13:16;;;;;;;17.70;6.15;;;;;;;8.86;88.14;102011.84;1032938;28;20348;-79
2022/05/15 01:13:50;;;;;;;33.70;8.35;;;;;;;8.97;88.54;102009.59;1036765;28;20391;-81
2022/05/15 01:14:21;;;;;;;33.80;7.78;;;;;;;8.73;88.00;102017.72;1035491;28;20300;-80
2022/05/15 01:14:53;;;;;;;27.80;6.97;;;;;;;8.73;87.75;102015.06;1031451;28;20683;-80
2022/05/15 01:15:26;;;;;;;30.42;7.00;;;;;;;8.57;88.14;102004.53;1030516;28;20709;-80
2022/05/15 01:16:01;;;;;;;36.13;8.32;;;;;;;8.64;88.61;102010.78;1030824;28;20301;-80
2022/05/15 01:16:34;;;;;;;34.30;7.75;;;;;;;8.76;88.68;102014.69;1030718;28;20400;-80
2022/05/15 01:17:06;;;;;;;26.60;8.15;;;;;;;8.98;88.18;102005.91;1028215;28;20392;-79
2022/05/15 01:17:37;;;;;;;45.35;9.25;;;;;;;9.05;88.17;102010.56;1032829;28;20367;-80
2022/05/15 01:18:10;;;;;;;37.30;7.97;;;;;;;8.68;87.72;102004.97;1034761;28;20301;-80
2022/05/15 01:18:43;;;;;;;28.40;7.30;;;;;;;8.41;88.30;102009.91;1034348;28;20312;-79
2022/05/15 01:19:15;;;;;;;37.33;8.38;;;;;;;8.34;89.89;102015.94;1035077;28;20311;-80
2022/05/15 01:19:46;;;;;;;37.83;8.77;;;;;;;8.29;90.85;102018.25;1035472;28;20791;-80
2022/05/15 01:20:20;;;;;;;33.33;8.35;;;;;;;8.36;90.32;102013.91;1039166;28;20300;-79
2022/05/15 01:20:54;;;;;;;32.13;7.57;;;;;;;8.21;91.83;102018.25;1036928;28;20379;-80
2022/05/15 01:21:31;;;;;;;28.05;9.25;;;;;;;8.35;92.02;102017.56;1030769;28;20369;-79
2022/05/15 01:22:04;;;;;;;34.80;8.55;;;;;;;8.48;91.72;102017.00;1030655;28;20699;-79
2022/05/15 01:22:36;;;;;;;29.65;8.88;;;;;;;8.33;91.80;102011.63;1032404;28;20748;-80
2022/05/15 01:23:08;;;;;;;33.45;8.65;;;;;;;8.48;92.44;102017.00;1031025;28;20293;-79
2022/05/15 01:23:39;;;;;;;30.77;7.93;;;;;;;8.80;91.83;102017.84;1031493;28;20957;-79
2022/05/15 01:24:14;;;;;;;34.28;8.63;;;;;;;8.71;90.73;102025.03;1032472;28;20312;-79
2022/05/15 01:24:46;;;;;;;24.33;8.82;;;;;;;8.45;91.62;102027.97;1036181;28;20312;-80
2022/05/15 01:25:20;;;;;;;31.15;9.13;;;;;;;8.49;91.23;102013.38;1035064;28;20308;-79
2022/05/15 01:25:53;;;;;;;27.45;7.25;;;;;;;8.60;91.13;102020.13;1027434;28;20298;-79
2022/05/15 01:26:24;;;;;;;29.38;10.25;;;;;;;8.58;91.15;102012.31;1031838;28;20404;-79
2022/05/15 01:27:01;;;;;;;26.23;9.73;;;;;;;8.59;91.45;102021.13;1036271;28;20304;-79
2022/05/15 01:27:33;;;;;;;28.02;7.97;;;;;;;8.56;91.06;102013.50;1037245;28;20292;-79
2022/05/15 01:28:09;;;;;;;20.45;8.15;;;;;;;8.45;90.02;102013.88;1038023;28;20427;-80
2022/05/15 01:28:45;;;;;;;27.65;9.55;;;;;;;8.21;91.14;102010.28;1032680;28;20302;-79
2022/05/15 01:29:17;;;;;;;23.50;7.82;;;;;;;8.13;91.89;102012.16;1036568;28;20378;-79
2022/05/15 01:29:49;;;;;;;21.55;8.52;;;;;;;8.02;92.79;102018.66;1036524;28;20818;-79
2022/05/15 01:30:23;;;;;;;21.70;8.10;;;;;;;8.05;93.37;102018.31;1032013;28;20305;-79
2022/05/15 01:30:57;;;;;;;21.52;8.57;;;;;;;7.99;93.24;102011.06;1031351;28;20308;-79
2022/05/15 01:31:29;;;;;;;26.73;9.00;;;;;;;7.94;93.57;102016.03;1032613;28;20797;-80
2022/05/15 01:32:03;;;;;;;21.67;7.53;;;;;;;8.04;93.20;102014.03;1033294;28;20384;-78
2022/05/15 01:32:35;;;;;;;22.23;8.60;;;;;;;8.02;92.84;102018.66;1033056;28;20301;-77
2022/05/15 01:33:07;;;;;;;21.40;8.07;;;;;;;7.97;93.07;102018.34;1031664;28;20317;-78
2022/05/15 01:33:40;;;;;;;23.92;7.25;;;;;;;8.04;93.84;102008.72;1039949;28;20303;-78
2022/05/15 01:34:12;;;;;;;24.90;8.45;;;;;;;8.27;93.11;102014.94;1038622;28;20770;-77
2022/05/15 01:34:44;;;;;;;23.73;8.65;;;;;;;8.41;93.01;102016.06;1031751;28;20463;-78
2022/05/15 01:35:15;;;;;;;27.20;8.23;;;;;;;8.49;92.14;102012.53;1032576;28;20289;-77
2022/05/15 01:35:48;;;;;;;18.73;8.10;;;;;;;8.59;91.93;102018.47;1036368;28;20877;-78
2022/05/15 01:36:21;;;;;;;25.98;8.25;;;;;;;8.67;91.73;102018.41;1036432;28;20307;-77
2022/05/15 01:36:54;;;;;;;29.25;10.05;;;;;;;8.70;91.17;102020.72;1031778;28;20320;-77
2022/05/15 01:37:27;;;;;;;24.80;7.30;;;;;;;8.62;91.13;102018.13;1028826;28;20310;-77
2022/05/15 01:37:58;;;;;;;25.55;9.90;;;;;;;8.64;91.21;102016.94;1028728;28;20301;-77
2022/05/15 01:38:30;;;;;;;27.35;9.63;;;;;;;8.40;90.61;102018.88;1028466;28;20301;-78
2022/05/15 01:39:05;;;;;;;28.85;8.75;;;;;;;8.41;90.64;102017.88;1028309;28;20302;-77
2022/05/15 01:39:37;;;;;;;16.55;6.15;;;;;;;8.17;90.50;102024.91;1040541;28;20304;-78
2022/05/15 01:40:09;;;;;;;20.80;7.80;;;;;;;8.21;89.63;102010.28;1043454;28;20287;-77
2022/05/15 01:40:41;;;;;;;25.48;7.45;;;;;;;8.27;89.50;102011.44;1032950;28;20803;-77
2022/05/15 01:41:14;;;;;;;25.50;7.80;;;;;;;8.43;89.74;102018.53;1032523;28;20312;-77
2022/05/15 01:41:46;;;;;;;21.75;7.15;;;;;;;8.16;89.90;102022.44;1031872;28;20345;-77
2022/05/15 01:42:18;;;;;;;27.40;8.55;;;;;;;8.06;90.86;102017.31;1033159;28;20341;-77
2022/05/15 01:42:49;;;;;;;24.30;8.82;;;;;;;8.06;91.29;102006.72;1036420;28;20356;-77
2022/05/15 01:43:22;;;;;;;25.75;7.53;;;;;;;8.30;91.50;102014.59;1039967;28;20296;-77
2022/05/15 01:43:53;;;;;;;27.42;8.23;;;;;;;8.38;91.09;102016.41;1036422;28;20297;-78
2022/05/15 01:44:28;;;;;;;20.75;8.52;;;;;;;8.31;91.21;102018.06;1032642;28;20897;-77
2022/05/15 01:45:00;;;;;;;19.63;8.00;;;;;;;8.39;90.83;102017.22;1039496;28;20644;-78
2022/05/15 01:45:32;;;;;;;21.25;7.13;;;;;;;8.39;90.90;102011.91;1040788;28;20378;-77
2022/05/15 01:46:04;;;;;;;17.67;7.20;;;;;;;8.40;90.41;102011.75;1037518;28;20308;-77
2022/05/15 01:46:36;;;;;;;21.73;7.65;;;;;;;8.53;90.05;102011.19;1044151;28;20373;-77
2022/05/15 01:47:13;;;;;;;21.63;8.80;;;;;;;8.51;90.49;102010.56;1039968;28;20311;-77
2022/05/15 01:47:45;;;;;;;24.63;7.30;;;;;;;8.48;89.76;102011.69;1038495;28;20783;-78
2022/05/15 01:48:16;;;;;;;26.58;7.65;;;;;;;8.34;90.10;102010.63;1035913;28;20324;-78
2022/05/15 01:48:50;;;;;;;20.50;7.25;;;;;;;8.44;89.84;102014.88;1028210;28;20306;-78
2022/05/15 01:49:22;;;;;;;19.08;8.23;;;;;;;8.55;90.13;102006.53;1028061;28;20309;-77
2022/05/15 01:49:54;;;;;;;21.02;8.68;;;;;;;8.52;89.55;102017.53;1029565;28;20658;-77
2022/05/15 01:50:26;;;;;;;28.33;9.20;;;;;;;8.20;89.75;102008.63;1034347;28;20728;-77
2022/05/15 01:50:59;;;;;;;18.48;8.10;;;;;;;8.13;90.52;102006.84;1038063;28;20296;-77
2022/05/15 01:51:33;;;;;;;21.00;8.13;;;;;;;7.97;90.60;102008.56;1036765;28;20362;-77
2022/05/15 01:52:05;;;;;;;23.50;8.68;;;;;;;7.96;91.30;102012.22;1032568;28;20806;-77
2022/05/15 01:52:37;;;;;;;18.35;7.80;;;;;;;7.96;91.36;102006.91;1033587;28;20301;-77
2022/05/15 01:53:09;;;;;;;14.18;6.22;;;;;;;8.07;91.16;102013.69;1033285;28;20304;-78
2022/05/15 01:53:41;;;;;;;22.23;8.80;;;;;;;8.01;90.81;102019.66;1033806;28;20316;-77
2022/05/15 01:54:13;;;;;;;30.17;9.60;;;;;;;7.83;91.83;102006.59;1035956;28;20327;-77
2022/05/15 01:54:45;;;;;;;23.50;7.55;;;;;;;7.94;91.79;102008.06;1028945;28;20306;-77
2022/05/15 01:55:16;;;;;;;18.48;6.85;;;;;;;8.02;91.97;102006.22;1037253;28;20288;-78
2022/05/15 01:55:50;;;;;;;17.67;7.80;;;;;;;8.16;91.24;102002.03;1033113;28;20823;-78
2022/05/15 01:56:21;;;;;;;22.52;8.70;;;;;;;8.01;90.99;102004.56;1026159;28;20357;-78
2022/05/15 01:56:55;;;;;;;17.85;7.53;;;;;;;7.54;90.80;102009.81;1028647;28;20314;-78
2022/05/15 01:57:26;;;;;;;16.83;8.45;;;;;;;7.63;91.98;102006.13;1032512;28;20315;-77
2022/05/15 01:57:58;;;;;;;16.27;8.20;;;;;;;7.85;92.08;102003.78;1032593;28;20305;-78
2022/05/15 01:58:30;;;;;;;23.27;8.35;;;;;;;8.02;91.89;102010.72;1033020;28;20304;-77
2022/05/15 01:59:03;;;;;;;24.65;9.23;;;;;;;8.14;91.83;102009.31;1032591;28;20870;-78
2022/05/15 01:59:36;;;;;;;23.48;8.55;;;;;;;8.06;91.78;102002.22;1036228;28;20429;-78
2022/05/15 02:00:12;;;;;;;18.90;8.25;;;;;;;8.07;91.49;102003.06;1028570;28;20356;-77
2022/05/15 02:00:45;;;;;;;25.33;7.65;;;;;;;7.91;91.66;101998.63;1028552;28;20310;-77
2022/05/15 02:01:16;;;;;;;21.80;8.57;;;;;;;7.62;91.82;101993.88;1027276;28;20306;-78
2022/05/15 02:01:48;;;;;;;26.38;9.95;;;;;;;7.68;92.53;102006.50;1034939;28;20289;-78
2022/05/15 02:02:20;;;;;;;19.58;7.93;;;;;;;7.82;92.25;101998.81;1032986;28;20305;-78
2022/05/15 02:02:52;;;;;;;26.23;7.93;;;;;;;8.13;92.48;102002.38;1036700;28;20312;-78
2022/05/15 02:03:24;;;;;;;21.85;7.88;;;;;;;8.22;91.79;101996.06;1028441;28;20812;-78
2022/05/15 02:03:55;;;;;;;20.17;8.00;;;;;;;7.64;92.13;101999.00;1029553;28;20379;-77
2022/05/15 02:04:27;;;;;;;24.48;8.52;;;;;;;7.51;92.39;101991.59;1032538;28;20443;-78
2022/05/15 02:04:59;;;;;;;24.52;8.70;;;;;;;7.62;92.54;101999.19;1031907;28;20307;-78
2022/05/15 02:05:30;;;;;;;20.00;7.13;;;;;;;7.67;91.65;101996.88;1033764;28;20345;-77
2022/05/15 02:06:03;;;;;;;17.48;7.95;;;;;;;7.85;92.22;101995.81;1041693;28;20294;-78
2022/05/15 02:06:36;;;;;;;20.90;9.15;;;;;;;7.53;91.81;101999.38;1041288;28;20832;-78
2022/05/15 02:07:08;;;;;;;20.88;8.60;;;;;;;7.58;92.70;101995.22;1036600;28;20312;-77
2022/05/15 02:07:40;;;;;;;21.33;8.27;;;;;;;7.71;92.67;101997.38;1034328;28;20352;-77
2022/05/15 02:08:13;;;;;;;20.35;7.72;;;;;;;7.89;92.49;101997.13;1036620;28;20300;-77
2022/05/15 02:08:47;;;;;;;23.95;9.57;;;;;;;8.11;92.15;101992.94;1038164;28;20308;-77
2022/05/15 02:09:19;;;;;;;24.33;8.98;;;;;;;8.24;92.49;101999.34;1044762;28;20298;-77
2022/05/15 02:09:51;;;;;;;23.45;9.18;;;;;;;8.25;92.16;102003.66;1040593;28;20300;-77
2022/05/15 02:10:23;;;;;;;25.40;10.32;;;;;;;8.14;92.57;102003.19;1041476;28;20673;-77
2022/05/15 02:10:54;;;;;;;23.63;10.55;;;;;;;8.20;92.20;102003.31;1043476;28;20307;-77
2022/05/15 02:11:26;;;;;;;20.15;9.07;;;;;;;8.16;92.00;101996.72;1040671;28;20769;-77
2022/05/15 02:11:58;;;;;;;27.95;8.98;;;;;;;8.21;91.89;102009.47;1032625;28;20300;-77
2022/05/15 02:12:29;;;;;;;22.65;9.30;;;;;;;8.33;92.10;102001.00;1032511;28;20301;-77
2022/05/15 02:13:01;;;;;;;28.20;9.63;;;;;;;8.02;91.47;102006.22;1033138;28;20715;-77
2022/05/15 02:13:33;;;;;;;19.25;8.18;;;;;;;7.84;91.55;102007.44;1034239;28;20301;-77
2022/05/15 02:14:07;;;;;;;26.00;8.73;;;;;;;8.03;91.99;102002.56;1037882;28;20308;-77
2022/05/15 02:14:40;;;;;;;22.27;8.15;;;;;;;8.05;91.52;102007.72;1038290;28;20390;-77
2022/05/15 02:15:12;;;;;;;21.90;10.25;;;;;;;8.09;91.23;101997.56;1035839;28;20316;-77
2022/05/15 02:15:43;;;;;;;22.70;8.77;;;;;;;8.14;91.61;102004.03;1036574;28;20300;-77
2022/05/15 02:16:15;;;;;;;22.85;8.75;;;;;;;8.26;91.28;102000.00;1035206;28;20300;-77
2022/05/15 02:16:47;;;;;;;21.05;8.27;;;;;;;8.19;90.89;102012.28;1042474;28;20288;-77
2022/05/15 02:17:19;;;;;;;24.40;8.88;;;;;;;7.93;91.76;102001.09;1037111;28;20308;-77
2022/05/15 02:17:52;;;;;;;30.33;9.75;;;;;;;7.71;91.82;102008.78;1038283;28;20304;-77
2022/05/15 02:18:24;;;;;;;27.10;8.85;;;;;;;7.70;92.50;102001.84;1036604;28;20662;-77
2022/05/15 02:18:57;;;;;;;20.75;8.32;;;;;;;7.93;92.34;102004.56;1037501;28;20300;-77
2022/05/15 02:19:28;;;;;;;22.10;8.18;;;;;;;7.97;91.91;101999.78;1039851;28;20307;-77
2022/05/15 02:20:00;;;;;;;19.73;7.70;;;;;;;7.87;91.39;102001.78;1033067;28;20663;-77
2022/05/15 02:20:32;;;;;;;25.92;8.15;;;;;;;7.81;91.77;101997.16;1032475;28;20305;-77
2022/05/15 02:21:04;;;;;;;23.40;7.95;;;;;;;7.91;91.70;101997.78;1036631;28;20297;-77
2022/05/15 02:21:36;;;;;;;20.80;7.60;;;;;;;8.02;91.25;102000.94;1032526;28;20297;-78
2022/05/15 02:22:07;;;;;;;21.00;8.00;;;;;;;7.92;91.35;102000.28;1032842;28;20312;-77
2022/05/15 02:22:40;;;;;;;22.40;8.63;;;;;;;7.89;91.29;101992.66;1029077;28;20294;-77
2022/05/15 02:23:11;;;;;;;25.27;7.72;;;;;;;7.90;91.33;101996.13;1025767;28;20350;-77
2022/05/15 02:23:43;;;;;;;28.25;9.02;;;;;;;7.86;91.53;101994.81;1037065;28;20813;-77
2022/05/15 02:24:15;;;;;;;24.33;8.02;;;;;;;7.92;90.96;101996.78;1037054;28;20296;-77
2022/05/15 02:24:47;;;;;;;21.48;7.47;;;;;;;7.90;90.89;101996.97;1033659;28;20301;-77
2022/05/15 02:25:18;;;;;;;26.05;8.95;;;;;;;7.99;90.39;101995.13;1032928;28;20831;-77
2022/05/15 02:25:50;;;;;;;25.27;8.52;;;;;;;7.87;90.26;101997.31;1037041;28;20382;-77
2022/05/15 02:26:23;;;;;;;17.77;7.00;;;;;;;7.94;90.60;101992.13;1036487;28;20799;-77
2022/05/15 02:26:54;;;;;;;18.55;7.40;;;;;;;7.95;90.32;101993.81;1037203;28;20304;-77
2022/05/15 02:27:26;;;;;;;24.23;7.53;;;;;;;7.70;90.82;101987.75;1040047;28;20307;-77
2022/05/15 02:27:58;;;;;;;21.55;7.82;;;;;;;7.60;90.97;101989.75;1037054;28;20311;-77
2022/05/15 02:28:30;;;;;;;23.40;7.88;;;;;;;7.83;90.97;101985.38;1037728;28;20861;-77
2022/05/15 02:29:03;;;;;;;17.95;6.90;;;;;;;7.69;90.72;101989.56;1044725;28;20330;-77
2022/05/15 02:29:34;;;;;;;22.83;7.07;;;;;;;7.69;90.96;101989.56;1040582;28;20304;-77
2022/05/15 02:30:08;;;;;;;25.55;8.15;;;;;;;7.71;90.42;101987.59;1032428;28;20337;-77
2022/05/15 02:30:40;;;;;;;26.10;8.00;;;;;;;7.84;91.01;101991.53;1037380;28;20297;-77
2022/05/15 02:31:12;;;;;;;20.02;7.20;;;;;;;7.54;91.26;101990.41;1039198;28;20374;-77
2022/05/15 02:31:43;;;;;;;26.30;7.97;;;;;;;7.79;91.68;101988.56;1036691;28;20300;-77
2022/05/15 02:32:15;;;;;;;30.73;8.52;;;;;;;7.74;92.01;101987.25;1032629;28;20332;-78
2022/05/15 02:32:48;;;;;;;34.78;10.38;;;;;;;8.01;91.09;101985.19;1028438;28;20306;-77